createdAt,value
2022-08-19T00:04:38.640Z,18.60
2022-08-19T00:09:40.454Z,17.98
2022-08-19T00:14:42.537Z,19.30
2022-08-19T00:19:44.416Z,18.33
2022-08-19T00:24:49.597Z,18.90
2022-08-19T00:29:52.992Z,18.58
2022-08-19T00:34:54.819Z,19.65
2022-08-19T00:39:56.948Z,19.98
2022-08-19T00:44:58.988Z,21.30
2022-08-19T00:50:01.350Z,19.73
2022-08-19T00:55:13.379Z,21.80
2022-08-19T01:00:18.361Z,22.85
2022-08-19T01:05:28.444Z,22.98
2022-08-19T01:10:36.693Z,24.45
2022-08-19T01:15:56.084Z,25.57
2022-08-19T01:21:02.893Z,24.80
2022-08-19T01:26:05.554Z,26.25
2022-08-19T01:31:12.548Z,25.15
2022-08-19T01:36:40.123Z,25.15
2022-08-19T01:41:42.034Z,27.08
2022-08-19T01:46:45.437Z,26.80
2022-08-19T01:51:48.077Z,27.50
2022-08-19T01:56:55.983Z,26.52
2022-08-19T02:01:58.286Z,26.50
2022-08-19T02:07:00.159Z,32.38
2022-08-19T02:12:02.207Z,52.80
2022-08-19T02:17:04.917Z,38.42
2022-08-19T02:22:09.711Z,35.00
2022-08-19T02:27:11.568Z,36.85
2022-08-19T02:32:14.419Z,38.20
2022-08-19T02:37:43.822Z,37.65
2022-08-19T02:42:46.903Z,37.57
2022-08-19T02:47:51.982Z,39.95
2022-08-19T02:52:53.917Z,37.67
2022-08-19T02:57:57.971Z,37.40
2022-08-19T03:03:01.124Z,35.25
2022-08-19T03:08:04.492Z,34.42
2022-08-19T03:13:06.285Z,31.95
2022-08-19T03:18:08.342Z,30.52
2022-08-19T03:23:11.525Z,26.33
2022-08-19T03:28:16.157Z,25.45
2022-08-19T03:33:18.175Z,26.80
2022-08-19T03:38:30.732Z,26.00
2022-08-19T03:43:32.641Z,27.95
2022-08-19T03:48:34.955Z,26.15
2022-08-19T03:53:36.789Z,25.60
2022-08-19T03:58:38.652Z,26.73
2022-08-19T04:03:41.244Z,24.80
2022-08-19T04:08:44.346Z,25.08
2022-08-19T04:13:46.161Z,24.58
2022-08-19T04:18:48.831Z,24.48
2022-08-19T04:23:50.999Z,26.45
2022-08-19T04:28:55.289Z,29.58
2022-08-19T04:33:59.085Z,27.40
2022-08-19T04:39:08.939Z,25.92
2022-08-19T04:44:11.208Z,25.20
2022-08-19T04:49:13.864Z,24.90
2022-08-19T04:54:28.766Z,24.63
2022-08-19T04:59:40.459Z,25.85
2022-08-19T05:04:42.280Z,25.00
2022-08-19T05:09:58.051Z,26.08
2022-08-19T05:15:01.822Z,25.70
2022-08-19T05:20:24.964Z,26.48
2022-08-19T05:25:26.809Z,26.38
2022-08-19T05:30:46.100Z,26.52
2022-08-19T05:35:50.310Z,24.95
2022-08-19T05:40:52.211Z,24.77
2022-08-19T05:45:54.007Z,22.95
2022-08-19T05:50:55.854Z,22.67
2022-08-19T05:55:57.654Z,24.30
2022-08-19T06:01:05.432Z,25.05
2022-08-19T06:06:09.582Z,24.27
2022-08-19T06:11:17.695Z,26.80
2022-08-19T06:16:23.078Z,24.70
2022-08-19T06:21:28.264Z,25.52
2022-08-19T06:26:30.258Z,25.95
2022-08-19T06:31:34.284Z,25.50
2022-08-19T06:36:45.233Z,25.58
2022-08-19T06:41:52.429Z,26.15
2022-08-19T06:46:56.900Z,25.67
2022-08-19T06:51:59.715Z,25.77
2022-08-19T06:57:04.128Z,24.17
2022-08-19T07:02:07.567Z,25.02
2022-08-19T07:07:19.994Z,24.75
2022-08-19T07:12:22.806Z,24.58
2022-08-19T07:17:24.722Z,24.42
2022-08-19T07:22:26.998Z,24.95
2022-08-19T07:27:28.787Z,25.85
2022-08-19T07:32:31.774Z,24.63
2022-08-19T07:37:36.095Z,25.27
2022-08-19T07:42:38.250Z,24.48
2022-08-19T07:47:48.093Z,24.85
2022-08-19T07:52:55.475Z,26.00
2022-08-19T07:57:59.235Z,26.00
2022-08-19T08:03:01.033Z,26.63
2022-08-19T08:08:21.271Z,25.52
2022-08-19T08:13:30.021Z,27.13
2022-08-19T08:18:32.206Z,26.92
2022-08-19T08:23:36.446Z,26.83
2022-08-19T08:28:41.869Z,26.27
2022-08-19T08:33:49.903Z,26.17
2022-08-19T08:43:54.053Z,25.42
2022-08-19T08:49:09.788Z,26.95
2022-08-19T08:54:18.738Z,27.13
2022-08-19T08:59:30.152Z,26.63
2022-08-19T09:04:31.930Z,29.70
2022-08-19T09:09:42.098Z,30.45
2022-08-19T09:15:01.015Z,30.30
2022-08-19T09:20:11.937Z,31.67
2022-08-19T09:25:24.603Z,31.80
2022-08-19T09:30:31.993Z,29.98
2022-08-19T09:35:49.933Z,30.92
2022-08-19T09:40:55.210Z,28.45
2022-08-19T09:45:58.290Z,28.52
2022-08-19T09:51:09.071Z,27.23
2022-08-19T09:56:14.600Z,26.23
2022-08-19T10:01:22.142Z,26.98
2022-08-19T10:06:46.201Z,26.58
2022-08-19T10:11:54.864Z,25.58
2022-08-19T10:16:57.538Z,25.10
2022-08-19T10:22:04.714Z,26.40
2022-08-19T10:27:06.775Z,25.50
2022-08-19T10:32:11.039Z,26.00
2022-08-19T10:37:14.406Z,25.73
2022-08-19T10:42:19.498Z,25.40
2022-08-19T10:47:24.441Z,23.90
2022-08-19T10:52:38.710Z,23.38
2022-08-19T10:58:01.261Z,23.65
2022-08-19T11:03:03.862Z,25.20
2022-08-19T11:08:22.137Z,23.75
2022-08-19T11:13:25.989Z,23.70
2022-08-19T11:18:27.840Z,22.25
2022-08-19T11:23:29.594Z,21.77
2022-08-19T11:28:31.413Z,23.42
2022-08-19T11:33:33.694Z,23.17
2022-08-19T11:38:42.303Z,23.58
2022-08-19T11:43:46.033Z,22.60
2022-08-19T11:48:48.990Z,22.92
2022-08-19T11:53:51.649Z,21.65
2022-08-19T11:58:54.732Z,21.50
2022-08-19T12:03:57.764Z,20.85
2022-08-19T12:09:06.850Z,21.10
2022-08-19T12:14:14.349Z,19.80
2022-08-19T12:19:16.766Z,19.27
2022-08-19T12:24:25.479Z,19.27
2022-08-19T12:29:30.370Z,17.10
2022-08-19T12:34:33.277Z,16.77
2022-08-19T12:39:40.579Z,16.35
2022-08-19T12:44:43.811Z,15.55
2022-08-19T12:49:54.041Z,15.52
2022-08-19T12:54:58.140Z,15.85
2022-08-19T13:00:08.769Z,16.15
2022-08-19T13:05:13.156Z,15.70
2022-08-19T13:10:17.960Z,16.05
2022-08-19T13:15:23.806Z,16.95
2022-08-19T13:20:27.580Z,16.52
2022-08-19T13:25:29.452Z,17.77
2022-08-19T13:30:50.084Z,18.83
2022-08-19T13:35:57.907Z,17.73
2022-08-19T13:41:10.947Z,17.80
2022-08-19T13:46:14.936Z,18.50
2022-08-19T13:51:18.735Z,17.92
2022-08-19T13:56:25.405Z,17.73
2022-08-19T14:01:28.536Z,18.20
2022-08-19T14:06:30.472Z,17.88
2022-08-19T14:11:32.575Z,17.90
2022-08-19T14:16:34.591Z,18.30
2022-08-19T14:21:41.417Z,17.40
2022-08-19T14:26:43.576Z,18.83
2022-08-19T14:31:45.433Z,18.52
2022-08-19T14:36:49.937Z,18.27
2022-08-19T14:41:51.787Z,17.75
2022-08-19T14:46:54.247Z,18.23
2022-08-19T14:51:57.539Z,17.00
2022-08-19T14:56:59.570Z,16.13
2022-08-19T15:02:33.710Z,16.65
2022-08-19T15:07:23.338Z,16.02
2022-08-19T15:12:30.084Z,16.60
2022-08-19T15:17:43.413Z,15.65
2022-08-19T15:22:48.473Z,15.43
2022-08-19T15:27:51.176Z,15.63
2022-08-19T15:32:55.719Z,15.82
2022-08-19T15:37:57.817Z,15.52
2022-08-19T15:42:59.633Z,15.18
2022-08-19T15:48:03.218Z,16.73
2022-08-19T15:53:08.598Z,15.02
2022-08-19T15:58:32.485Z,16.00
2022-08-19T16:03:52.806Z,15.82
2022-08-19T16:09:00.049Z,16.40
2022-08-19T16:14:02.637Z,15.50
2022-08-19T16:19:11.973Z,16.83
2022-08-19T16:24:15.886Z,16.17
2022-08-19T16:29:33.474Z,16.92
2022-08-19T16:34:37.924Z,17.70
2022-08-19T16:39:44.354Z,19.02
2022-08-19T16:44:49.370Z,18.85
2022-08-19T16:49:54.042Z,18.85
2022-08-19T16:54:57.001Z,18.65
2022-08-19T16:59:59.031Z,19.98
2022-08-19T17:05:00.894Z,18.75
2022-08-19T17:10:05.439Z,19.15
2022-08-19T17:15:11.029Z,19.27
2022-08-19T17:20:12.938Z,19.98
2022-08-19T17:25:15.806Z,18.73
2022-08-19T17:30:18.810Z,18.75
2022-08-19T17:35:24.216Z,18.20
2022-08-19T17:40:26.787Z,18.67
2022-08-19T17:45:31.942Z,17.80
2022-08-19T17:50:35.309Z,16.13
2022-08-19T17:55:37.382Z,16.90
2022-08-19T18:00:39.596Z,16.73
2022-08-19T18:05:56.998Z,18.20
2022-08-19T18:11:00.183Z,15.80
2022-08-19T18:16:03.513Z,15.05
2022-08-19T18:21:05.756Z,14.45
2022-08-19T18:26:08.033Z,15.48
2022-08-19T18:31:09.842Z,15.73
2022-08-19T18:36:12.228Z,16.98
2022-08-19T18:41:32.756Z,13.50
2022-08-19T18:47:04.245Z,14.00
2022-08-19T18:52:06.111Z,13.35
2022-08-19T18:57:08.307Z,13.82
2022-08-19T19:02:13.638Z,14.68
2022-08-19T19:07:18.275Z,15.40
2022-08-19T19:12:20.263Z,16.10
2022-08-19T19:17:28.214Z,16.45
2022-08-19T19:22:30.111Z,16.05
2022-08-19T19:27:31.935Z,14.60
2022-08-19T19:32:39.126Z,16.00
2022-08-19T19:37:43.314Z,16.63
2022-08-19T19:42:46.877Z,18.27
2022-08-19T19:47:50.059Z,20.38
2022-08-19T19:52:52.105Z,19.77
2022-08-19T19:57:54.888Z,19.98
2022-08-19T20:02:56.779Z,19.48
2022-08-19T20:08:17.146Z,20.75
2022-08-19T20:13:21.675Z,20.15
2022-08-19T20:18:24.406Z,18.85
2022-08-19T20:23:26.678Z,21.08
2022-08-19T20:28:28.610Z,19.95
2022-08-19T20:33:31.366Z,20.73
2022-08-19T20:38:35.006Z,21.95
2022-08-19T20:43:37.809Z,20.70
2022-08-19T20:48:42.188Z,19.10
2022-08-19T20:53:44.911Z,20.63
2022-08-19T20:58:51.846Z,22.13
2022-08-19T21:03:56.291Z,20.95
2022-08-19T21:08:58.081Z,21.23
2022-08-19T21:14:00.675Z,17.55
2022-08-19T21:19:02.553Z,14.13
2022-08-19T21:24:04.950Z,15.38
2022-08-19T21:29:07.061Z,14.70
2022-08-19T21:34:09.185Z,15.07
2022-08-19T21:39:11.047Z,17.63
2022-08-19T21:44:12.860Z,17.63
2022-08-19T21:49:14.613Z,19.25
2022-08-19T21:54:16.382Z,18.52
2022-08-19T21:59:18.339Z,19.17
2022-08-19T22:04:20.531Z,18.70
2022-08-19T22:09:22.326Z,18.10
2022-08-19T22:14:24.161Z,19.80
2022-08-19T22:19:26.317Z,19.88
2022-08-19T22:24:28.266Z,21.10
2022-08-19T22:29:33.703Z,21.88
2022-08-19T22:34:35.858Z,24.95
2022-08-19T22:39:37.820Z,28.35
2022-08-19T22:44:39.652Z,30.00
2022-08-19T22:49:41.420Z,27.83
2022-08-19T22:54:49.160Z,32.80
2022-08-19T22:59:52.603Z,30.25
2022-08-19T23:04:55.961Z,29.85
2022-08-19T23:09:57.964Z,30.98
2022-08-19T23:15:08.526Z,30.40
2022-08-19T23:20:14.209Z,33.10
2022-08-19T23:25:19.091Z,29.80
2022-08-19T23:30:27.216Z,31.27
2022-08-19T23:35:34.388Z,33.13
2022-08-19T23:40:38.762Z,31.38
2022-08-19T23:45:50.991Z,32.70
2022-08-19T23:50:54.255Z,32.50
2022-08-19T23:55:56.326Z,35.17
